Upper Hutt, New Zealand
Current Conditions -  °F | °C
As of 11:30 AM on Friday 19 Dec 2014 (Local Time) from NZWN Reporting Station
Overcast Overcast  
Wind Chill: 64°   Ceiling: 1100
Heat Index: 64°   Visibility: 6mi
Dew Point: 61°   Wind: 24mph
Humidity: 88%   Direction: 360°N
Pressure: 29.97"   Gusts: NA
Location:  41.12°S, 175.07°E
Report Text: NZWN 182330Z AUTO 36021KT 9999 OVC011/// 18/16 Q1015 NOSIG
Loading
Personal Weather Stations






























Interactive Weather Map New forecast layout! Learn more

10-Day Weather Forecast

Advertisements
Track Severe Weather on mobile